SKUI/UIB METAR and TAF weather

Enter ICAO airport designator
Station Type Date Time Source
SKUI METAR 2019/08/17 11:00 UTC NOAA

SKUI 171100Z 00000KT 1500 BR BKN002 22/22 A2993 RMK AD BLW MNM MET METAR SKMZ 171100Z 00000KT 6000 DZ VCFG BKN005 13/13 A3037 RMK AD BLW MNM MET


Station Type Date Time Source
SKUI Decoded METAR 2019/08/17 11:00 UTC NOAA

Station name not available
Aug 17, 2019 - 07:00 AM EDT / 2019.08.17 1100 UTC
Wind: Calm:0
Visibility: less than 1 mile:0
Sky conditions: mostly cloudy
Weather: mist
Temperature: 71 F (22 C)
Dew Point: 71 F (22 C)
Relative Humidity: 100%
Pressure (altimeter): 29.93 in. Hg (1013 hPa)
ob: SKUI 171100Z 00000KT 1500 BR BKN002 22/22 A2993 RMK AD BLW MNM MET METAR SKMZ 171100Z 00000KT 6000 DZ VCFG BKN005 13/13 A3037 RMK AD BLW MNM MET
cycle: 11

Station Type Date Time Source
SKUI TAF UTC NOAA

Error!

Example: see airport list